sensor_id;sensor_type;location;lat;lon;timestamp;P1;durP1;ratioP1;P2;durP2;ratioP2
7829;SDS011;3960;51.86894000;5.39848000;2022-12-11T00:01:48;173.17;;;33.53;;
7829;SDS011;3960;51.86894000;5.39848000;2022-12-11T00:04:13;190.40;;;34.03;;
7829;SDS011;3960;51.86894000;5.39848000;2022-12-11T00:06:39;162.03;;;33.20;;
7829;SDS011;3960;51.86894000;5.39848000;2022-12-11T00:09:04;175.03;;;32.23;;
7829;SDS011;3960;51.86894000;5.39848000;2022-12-11T00:11:29;169.40;;;31.57;;
7829;SDS011;3960;51.86894000;5.39848000;2022-12-11T00:13:54;208.43;;;35.35;;
7829;SDS011;3960;51.86894000;5.39848000;2022-12-11T00:16:19;197.67;;;32.93;;
7829;SDS011;3960;51.86894000;5.39848000;2022-12-11T00:18:44;210.90;;;35.60;;
7829;SDS011;3960;51.86894000;5.39848000;2022-12-11T00:21:11;195.87;;;33.93;;
7829;SDS011;3960;51.86894000;5.39848000;2022-12-11T00:23:36;190.65;;;34.55;;
7829;SDS011;3960;51.86894000;5.39848000;2022-12-11T00:26:05;191.32;;;35.47;;
7829;SDS011;3960;51.86894000;5.39848000;2022-12-11T00:28:31;192.60;;;34.38;;
7829;SDS011;3960;51.86894000;5.39848000;2022-12-11T00:30:56;215.55;;;35.70;;
7829;SDS011;3960;51.86894000;5.39848000;2022-12-11T00:33:21;206.97;;;32.77;;
7829;SDS011;3960;51.86894000;5.39848000;2022-12-11T00:35:46;197.23;;;34.43;;
7829;SDS011;3960;51.86894000;5.39848000;2022-12-11T00:38:15;225.13;;;36.10;;
7829;SDS011;3960;51.86894000;5.39848000;2022-12-11T00:40:41;198.60;;;34.92;;
7829;SDS011;3960;51.86894000;5.39848000;2022-12-11T00:43:06;233.18;;;36.40;;
7829;SDS011;3960;51.86894000;5.39848000;2022-12-11T00:45:34;200.45;;;33.22;;
7829;SDS011;3960;51.86894000;5.39848000;2022-12-11T00:48:00;235.07;;;35.03;;
7829;SDS011;3960;51.86894000;5.39848000;2022-12-11T00:50:25;211.02;;;34.95;;
7829;SDS011;3960;51.86894000;5.39848000;2022-12-11T00:52:50;245.82;;;37.95;;
7829;SDS011;3960;51.86894000;5.39848000;2022-12-11T00:55:15;224.30;;;34.50;;
7829;SDS011;3960;51.86894000;5.39848000;2022-12-11T00:57:40;238.10;;;34.90;;
7829;SDS011;3960;51.86894000;5.39848000;2022-12-11T01:00:06;223.70;;;35.60;;
7829;SDS011;3960;51.86894000;5.39848000;2022-12-11T01:02:32;213.05;;;33.53;;
7829;SDS011;3960;51.86894000;5.39848000;2022-12-11T01:04:57;255.07;;;37.97;;
7829;SDS011;3960;51.86894000;5.39848000;2022-12-11T01:07:22;233.85;;;35.83;;
7829;SDS011;3960;51.86894000;5.39848000;2022-12-11T01:09:47;256.45;;;37.42;;
7829;SDS011;3960;51.86894000;5.39848000;2022-12-11T01:12:31;233.18;;;35.70;;
7829;SDS011;3960;51.86894000;5.39848000;2022-12-11T01:14:56;243.30;;;37.92;;
7829;SDS011;3960;51.86894000;5.39848000;2022-12-11T01:17:21;240.45;;;35.67;;
7829;SDS011;3960;51.86894000;5.39848000;2022-12-11T01:19:47;220.47;;;36.10;;
7829;SDS011;3960;51.86894000;5.39848000;2022-12-11T01:22:12;279.70;;;37.47;;
7829;SDS011;3960;51.86894000;5.39848000;2022-12-11T01:24:37;269.40;;;35.77;;
7829;SDS011;3960;51.86894000;5.39848000;2022-12-11T01:27:02;276.83;;;37.27;;
7829;SDS011;3960;51.86894000;5.39848000;2022-12-11T01:29:27;279.75;;;35.83;;
7829;SDS011;3960;51.86894000;5.39848000;2022-12-11T01:31:53;250.77;;;35.03;;
7829;SDS011;3960;51.86894000;5.39848000;2022-12-11T01:34:18;264.10;;;38.28;;
7829;SDS011;3960;51.86894000;5.39848000;2022-12-11T01:36:43;251.23;;;35.13;;
7829;SDS011;3960;51.86894000;5.39848000;2022-12-11T01:39:08;231.40;;;36.50;;
7829;SDS011;3960;51.86894000;5.39848000;2022-12-11T01:41:33;200.97;;;33.57;;
7829;SDS011;3960;51.86894000;5.39848000;2022-12-11T01:46:39;208.88;;;36.10;;
7829;SDS011;3960;51.86894000;5.39848000;2022-12-11T01:49:06;217.98;;;38.15;;
7829;SDS011;3960;51.86894000;5.39848000;2022-12-11T01:51:32;201.90;;;35.80;;
7829;SDS011;3960;51.86894000;5.39848000;2022-12-11T01:54:00;201.88;;;35.58;;
7829;SDS011;3960;51.86894000;5.39848000;2022-12-11T01:56:26;179.50;;;32.40;;
7829;SDS011;3960;51.86894000;5.39848000;2022-12-11T01:58:55;187.15;;;36.00;;
7829;SDS011;3960;51.86894000;5.39848000;2022-12-11T02:01:43;215.68;;;37.75;;
7829;SDS011;3960;51.86894000;5.39848000;2022-12-11T02:04:07;180.52;;;33.97;;
7829;SDS011;3960;51.86894000;5.39848000;2022-12-11T02:06:37;178.52;;;34.08;;
7829;SDS011;3960;51.86894000;5.39848000;2022-12-11T02:17:06;182.75;;;34.90;;
7829;SDS011;3960;51.86894000;5.39848000;2022-12-11T02:19:48;173.95;;;34.47;;
7829;SDS011;3960;51.86894000;5.39848000;2022-12-11T02:22:21;168.48;;;34.25;;
7829;SDS011;3960;51.86894000;5.39848000;2022-12-11T02:24:56;180.45;;;35.08;;
7829;SDS011;3960;51.86894000;5.39848000;2022-12-11T02:30:02;178.80;;;34.58;;
7829;SDS011;3960;51.86894000;5.39848000;2022-12-11T02:32:33;153.88;;;33.78;;
7829;SDS011;3960;51.86894000;5.39848000;2022-12-11T02:35:04;170.38;;;35.95;;
7829;SDS011;3960;51.86894000;5.39848000;2022-12-11T02:37:31;162.82;;;34.30;;
7829;SDS011;3960;51.86894000;5.39848000;2022-12-11T02:39:59;152.23;;;33.30;;
7829;SDS011;3960;51.86894000;5.39848000;2022-12-11T02:42:27;149.15;;;33.17;;
7829;SDS011;3960;51.86894000;5.39848000;2022-12-11T02:44:54;144.60;;;33.10;;
7829;SDS011;3960;51.86894000;5.39848000;2022-12-11T02:47:21;151.02;;;33.22;;
7829;SDS011;3960;51.86894000;5.39848000;2022-12-11T02:49:48;145.13;;;33.72;;
7829;SDS011;3960;51.86894000;5.39848000;2022-12-11T02:52:14;135.63;;;31.75;;
7829;SDS011;3960;51.86894000;5.39848000;2022-12-11T02:54:41;126.57;;;31.40;;
7829;SDS011;3960;51.86894000;5.39848000;2022-12-11T02:57:09;135.85;;;32.47;;
7829;SDS011;3960;51.86894000;5.39848000;2022-12-11T02:59:36;138.25;;;32.63;;
7829;SDS011;3960;51.86894000;5.39848000;2022-12-11T03:02:02;130.27;;;33.28;;
7829;SDS011;3960;51.86894000;5.39848000;2022-12-11T03:04:28;132.48;;;32.40;;
7829;SDS011;3960;51.86894000;5.39848000;2022-12-11T03:06:54;123.00;;;32.63;;
7829;SDS011;3960;51.86894000;5.39848000;2022-12-11T03:09:20;125.20;;;32.50;;
7829;SDS011;3960;51.86894000;5.39848000;2022-12-11T03:11:45;121.78;;;31.17;;
7829;SDS011;3960;51.86894000;5.39848000;2022-12-11T03:14:10;128.43;;;33.40;;
7829;SDS011;3960;51.86894000;5.39848000;2022-12-11T03:16:37;124.05;;;33.17;;
7829;SDS011;3960;51.86894000;5.39848000;2022-12-11T03:19:17;110.55;;;30.40;;
7829;SDS011;3960;51.86894000;5.39848000;2022-12-11T03:21:54;121.40;;;30.88;;
7829;SDS011;3960;51.86894000;5.39848000;2022-12-11T03:24:27;111.80;;;31.45;;
7829;SDS011;3960;51.86894000;5.39848000;2022-12-11T03:26:55;111.60;;;30.75;;
7829;SDS011;3960;51.86894000;5.39848000;2022-12-11T03:29:22;98.80;;;28.67;;
7829;SDS011;3960;51.86894000;5.39848000;2022-12-11T03:31:50;102.00;;;31.33;;
7829;SDS011;3960;51.86894000;5.39848000;2022-12-11T03:34:28;93.68;;;29.48;;
7829;SDS011;3960;51.86894000;5.39848000;2022-12-11T03:36:54;92.85;;;29.75;;
7829;SDS011;3960;51.86894000;5.39848000;2022-12-11T03:39:54;93.00;;;31.63;;
7829;SDS011;3960;51.86894000;5.39848000;2022-12-11T03:42:12;85.47;;;28.95;;
7829;SDS011;3960;51.86894000;5.39848000;2022-12-11T03:44:38;93.70;;;29.83;;
7829;SDS011;3960;51.86894000;5.39848000;2022-12-11T03:47:04;87.13;;;28.52;;
7829;SDS011;3960;51.86894000;5.39848000;2022-12-11T03:49:32;83.65;;;28.73;;
7829;SDS011;3960;51.86894000;5.39848000;2022-12-11T03:51:59;88.03;;;29.92;;
7829;SDS011;3960;51.86894000;5.39848000;2022-12-11T03:54:25;80.50;;;29.40;;
7829;SDS011;3960;51.86894000;5.39848000;2022-12-11T03:56:52;77.82;;;28.15;;
7829;SDS011;3960;51.86894000;5.39848000;2022-12-11T03:59:19;81.20;;;28.10;;
7829;SDS011;3960;51.86894000;5.39848000;2022-12-11T04:01:44;82.00;;;30.37;;
7829;SDS011;3960;51.86894000;5.39848000;2022-12-11T04:04:10;78.10;;;28.25;;
7829;SDS011;3960;51.86894000;5.39848000;2022-12-11T04:06:35;80.17;;;29.40;;
7829;SDS011;3960;51.86894000;5.39848000;2022-12-11T04:09:00;70.93;;;27.08;;
7829;SDS011;3960;51.86894000;5.39848000;2022-12-11T04:11:25;71.67;;;27.53;;
7829;SDS011;3960;51.86894000;5.39848000;2022-12-11T04:14:00;69.10;;;27.67;;
7829;SDS011;3960;51.86894000;5.39848000;2022-12-11T04:16:44;65.28;;;25.05;;
7829;SDS011;3960;51.86894000;5.39848000;2022-12-11T04:19:09;62.67;;;26.07;;
7829;SDS011;3960;51.86894000;5.39848000;2022-12-11T04:21:53;57.35;;;24.48;;
7829;SDS011;3960;51.86894000;5.39848000;2022-12-11T04:24:57;56.65;;;25.02;;
7829;SDS011;3960;51.86894000;5.39848000;2022-12-11T04:27:23;56.33;;;24.40;;
7829;SDS011;3960;51.86894000;5.39848000;2022-12-11T04:30:09;57.63;;;25.80;;
7829;SDS011;3960;51.86894000;5.39848000;2022-12-11T04:32:34;58.92;;;25.15;;
7829;SDS011;3960;51.86894000;5.39848000;2022-12-11T04:34:59;53.33;;;24.57;;
7829;SDS011;3960;51.86894000;5.39848000;2022-12-11T04:37:25;50.50;;;24.90;;
7829;SDS011;3960;51.86894000;5.39848000;2022-12-11T04:39:51;55.10;;;24.83;;
7829;SDS011;3960;51.86894000;5.39848000;2022-12-11T04:42:16;56.93;;;26.57;;
7829;SDS011;3960;51.86894000;5.39848000;2022-12-11T04:44:41;56.37;;;25.70;;
7829;SDS011;3960;51.86894000;5.39848000;2022-12-11T04:47:06;62.80;;;27.40;;
7829;SDS011;3960;51.86894000;5.39848000;2022-12-11T04:49:31;55.60;;;26.33;;
7829;SDS011;3960;51.86894000;5.39848000;2022-12-11T04:51:56;52.23;;;25.50;;
7829;SDS011;3960;51.86894000;5.39848000;2022-12-11T04:54:22;53.33;;;26.58;;
7829;SDS011;3960;51.86894000;5.39848000;2022-12-11T04:56:47;51.93;;;23.93;;
7829;SDS011;3960;51.86894000;5.39848000;2022-12-11T04:59:12;47.30;;;23.83;;
7829;SDS011;3960;51.86894000;5.39848000;2022-12-11T05:01:37;45.73;;;22.67;;
7829;SDS011;3960;51.86894000;5.39848000;2022-12-11T05:04:02;54.97;;;24.80;;
7829;SDS011;3960;51.86894000;5.39848000;2022-12-11T05:06:27;50.97;;;25.80;;
7829;SDS011;3960;51.86894000;5.39848000;2022-12-11T05:08:52;50.47;;;24.60;;
7829;SDS011;3960;51.86894000;5.39848000;2022-12-11T05:11:18;48.93;;;24.00;;
7829;SDS011;3960;51.86894000;5.39848000;2022-12-11T05:13:43;53.07;;;24.80;;
7829;SDS011;3960;51.86894000;5.39848000;2022-12-11T05:16:10;57.53;;;26.08;;
7829;SDS011;3960;51.86894000;5.39848000;2022-12-11T05:18:35;49.45;;;23.58;;
7829;SDS011;3960;51.86894000;5.39848000;2022-12-11T05:21:01;50.20;;;26.53;;
7829;SDS011;3960;51.86894000;5.39848000;2022-12-11T05:23:26;51.25;;;26.02;;
7829;SDS011;3960;51.86894000;5.39848000;2022-12-11T05:25:56;55.67;;;25.75;;
7829;SDS011;3960;51.86894000;5.39848000;2022-12-11T05:28:22;49.83;;;24.80;;
7829;SDS011;3960;51.86894000;5.39848000;2022-12-11T05:30:53;53.88;;;25.75;;
7829;SDS011;3960;51.86894000;5.39848000;2022-12-11T05:33:18;49.40;;;25.15;;
7829;SDS011;3960;51.86894000;5.39848000;2022-12-11T05:35:47;52.83;;;26.20;;
7829;SDS011;3960;51.86894000;5.39848000;2022-12-11T05:38:12;49.72;;;25.67;;
7829;SDS011;3960;51.86894000;5.39848000;2022-12-11T05:40:37;51.90;;;25.70;;
7829;SDS011;3960;51.86894000;5.39848000;2022-12-11T05:43:02;46.97;;;25.10;;
7829;SDS011;3960;51.86894000;5.39848000;2022-12-11T05:45:28;53.60;;;26.40;;
7829;SDS011;3960;51.86894000;5.39848000;2022-12-11T05:47:53;48.87;;;24.93;;
7829;SDS011;3960;51.86894000;5.39848000;2022-12-11T05:50:18;45.73;;;24.83;;
7829;SDS011;3960;51.86894000;5.39848000;2022-12-11T05:52:43;49.00;;;25.38;;
7829;SDS011;3960;51.86894000;5.39848000;2022-12-11T05:55:08;51.00;;;25.30;;
7829;SDS011;3960;51.86894000;5.39848000;2022-12-11T05:57:33;48.78;;;25.20;;
7829;SDS011;3960;51.86894000;5.39848000;2022-12-11T05:59:59;49.63;;;24.75;;
7829;SDS011;3960;51.86894000;5.39848000;2022-12-11T06:02:24;42.13;;;23.10;;
7829;SDS011;3960;51.86894000;5.39848000;2022-12-11T06:04:49;47.50;;;23.43;;
7829;SDS011;3960;51.86894000;5.39848000;2022-12-11T06:07:14;44.93;;;24.33;;
7829;SDS011;3960;51.86894000;5.39848000;2022-12-11T06:09:39;45.70;;;23.13;;
7829;SDS011;3960;51.86894000;5.39848000;2022-12-11T06:12:04;43.28;;;23.60;;
7829;SDS011;3960;51.86894000;5.39848000;2022-12-11T06:14:30;46.42;;;24.45;;
7829;SDS011;3960;51.86894000;5.39848000;2022-12-11T06:16:55;44.13;;;22.13;;
7829;SDS011;3960;51.86894000;5.39848000;2022-12-11T06:19:20;40.90;;;22.42;;
7829;SDS011;3960;51.86894000;5.39848000;2022-12-11T06:21:45;41.47;;;22.63;;
7829;SDS011;3960;51.86894000;5.39848000;2022-12-11T06:24:12;47.00;;;23.85;;
7829;SDS011;3960;51.86894000;5.39848000;2022-12-11T06:26:37;40.50;;;20.73;;
7829;SDS011;3960;51.86894000;5.39848000;2022-12-11T06:29:03;35.67;;;19.17;;
7829;SDS011;3960;51.86894000;5.39848000;2022-12-11T06:31:28;42.20;;;20.97;;
7829;SDS011;3960;51.86894000;5.39848000;2022-12-11T06:33:53;40.37;;;21.20;;
7829;SDS011;3960;51.86894000;5.39848000;2022-12-11T06:36:19;35.03;;;19.83;;
7829;SDS011;3960;51.86894000;5.39848000;2022-12-11T06:38:45;41.50;;;20.40;;
7829;SDS011;3960;51.86894000;5.39848000;2022-12-11T06:41:10;35.50;;;19.07;;
7829;SDS011;3960;51.86894000;5.39848000;2022-12-11T06:43:36;34.45;;;18.33;;
7829;SDS011;3960;51.86894000;5.39848000;2022-12-11T06:46:02;35.67;;;19.02;;
7829;SDS011;3960;51.86894000;5.39848000;2022-12-11T06:48:27;33.83;;;18.55;;
7829;SDS011;3960;51.86894000;5.39848000;2022-12-11T06:50:53;39.53;;;19.53;;
7829;SDS011;3960;51.86894000;5.39848000;2022-12-11T06:53:18;38.60;;;19.88;;
7829;SDS011;3960;51.86894000;5.39848000;2022-12-11T06:55:43;38.43;;;20.10;;
7829;SDS011;3960;51.86894000;5.39848000;2022-12-11T06:58:09;34.80;;;18.73;;
7829;SDS011;3960;51.86894000;5.39848000;2022-12-11T07:00:35;36.83;;;18.58;;
7829;SDS011;3960;51.86894000;5.39848000;2022-12-11T07:03:00;33.40;;;17.85;;
7829;SDS011;3960;51.86894000;5.39848000;2022-12-11T07:05:25;31.77;;;16.00;;
7829;SDS011;3960;51.86894000;5.39848000;2022-12-11T07:07:54;34.30;;;17.73;;
7829;SDS011;3960;51.86894000;5.39848000;2022-12-11T07:10:19;36.25;;;18.30;;
7829;SDS011;3960;51.86894000;5.39848000;2022-12-11T07:12:44;30.73;;;16.10;;
7829;SDS011;3960;51.86894000;5.39848000;2022-12-11T07:15:10;39.37;;;17.23;;
7829;SDS011;3960;51.86894000;5.39848000;2022-12-11T07:17:35;35.10;;;16.92;;
7829;SDS011;3960;51.86894000;5.39848000;2022-12-11T07:20:00;33.83;;;17.40;;
7829;SDS011;3960;51.86894000;5.39848000;2022-12-11T07:22:25;37.23;;;17.40;;
7829;SDS011;3960;51.86894000;5.39848000;2022-12-11T07:24:50;35.80;;;16.80;;
7829;SDS011;3960;51.86894000;5.39848000;2022-12-11T07:27:15;30.73;;;15.73;;
7829;SDS011;3960;51.86894000;5.39848000;2022-12-11T07:29:40;30.33;;;16.10;;
7829;SDS011;3960;51.86894000;5.39848000;2022-12-11T07:32:06;32.70;;;16.30;;
7829;SDS011;3960;51.86894000;5.39848000;2022-12-11T07:34:31;33.40;;;16.57;;
7829;SDS011;3960;51.86894000;5.39848000;2022-12-11T07:36:56;33.20;;;16.77;;
7829;SDS011;3960;51.86894000;5.39848000;2022-12-11T07:39:22;32.53;;;16.65;;
7829;SDS011;3960;51.86894000;5.39848000;2022-12-11T07:41:47;32.58;;;17.60;;
7829;SDS011;3960;51.86894000;5.39848000;2022-12-11T07:44:12;33.17;;;16.92;;
7829;SDS011;3960;51.86894000;5.39848000;2022-12-11T07:46:38;33.23;;;16.80;;
7829;SDS011;3960;51.86894000;5.39848000;2022-12-11T07:49:03;32.90;;;16.48;;
7829;SDS011;3960;51.86894000;5.39848000;2022-12-11T07:51:29;32.75;;;16.85;;
7829;SDS011;3960;51.86894000;5.39848000;2022-12-11T07:53:59;31.58;;;17.05;;
7829;SDS011;3960;51.86894000;5.39848000;2022-12-11T07:56:25;34.55;;;16.67;;
7829;SDS011;3960;51.86894000;5.39848000;2022-12-11T07:58:50;33.40;;;16.67;;
7829;SDS011;3960;51.86894000;5.39848000;2022-12-11T08:01:17;29.95;;;16.48;;
7829;SDS011;3960;51.86894000;5.39848000;2022-12-11T08:03:42;38.00;;;18.02;;
7829;SDS011;3960;51.86894000;5.39848000;2022-12-11T08:06:08;31.67;;;17.02;;
7829;SDS011;3960;51.86894000;5.39848000;2022-12-11T08:08:33;32.97;;;17.48;;
7829;SDS011;3960;51.86894000;5.39848000;2022-12-11T08:11:05;31.00;;;16.75;;
7829;SDS011;3960;51.86894000;5.39848000;2022-12-11T08:13:30;36.85;;;17.95;;
7829;SDS011;3960;51.86894000;5.39848000;2022-12-11T08:15:56;33.92;;;18.30;;
7829;SDS011;3960;51.86894000;5.39848000;2022-12-11T08:18:21;34.00;;;18.10;;
7829;SDS011;3960;51.86894000;5.39848000;2022-12-11T08:20:46;35.03;;;18.30;;
7829;SDS011;3960;51.86894000;5.39848000;2022-12-11T08:23:12;34.53;;;18.30;;
7829;SDS011;3960;51.86894000;5.39848000;2022-12-11T08:25:37;37.97;;;19.03;;
7829;SDS011;3960;51.86894000;5.39848000;2022-12-11T08:28:02;35.65;;;18.17;;
7829;SDS011;3960;51.86894000;5.39848000;2022-12-11T08:30:27;36.17;;;19.33;;
7829;SDS011;3960;51.86894000;5.39848000;2022-12-11T08:32:52;33.80;;;17.85;;
7829;SDS011;3960;51.86894000;5.39848000;2022-12-11T08:35:18;35.53;;;18.15;;
7829;SDS011;3960;51.86894000;5.39848000;2022-12-11T08:37:43;31.70;;;17.03;;
7829;SDS011;3960;51.86894000;5.39848000;2022-12-11T08:40:08;31.42;;;17.25;;
7829;SDS011;3960;51.86894000;5.39848000;2022-12-11T08:42:34;34.33;;;17.73;;
7829;SDS011;3960;51.86894000;5.39848000;2022-12-11T08:44:59;33.38;;;16.85;;
7829;SDS011;3960;51.86894000;5.39848000;2022-12-11T08:47:25;31.20;;;16.67;;
7829;SDS011;3960;51.86894000;5.39848000;2022-12-11T08:49:50;32.08;;;17.50;;
7829;SDS011;3960;51.86894000;5.39848000;2022-12-11T08:52:16;30.75;;;16.60;;
7829;SDS011;3960;51.86894000;5.39848000;2022-12-11T08:54:41;36.90;;;17.92;;
7829;SDS011;3960;51.86894000;5.39848000;2022-12-11T08:57:06;30.33;;;17.40;;
7829;SDS011;3960;51.86894000;5.39848000;2022-12-11T08:59:31;33.88;;;16.23;;
7829;SDS011;3960;51.86894000;5.39848000;2022-12-11T09:01:56;27.55;;;15.90;;
7829;SDS011;3960;51.86894000;5.39848000;2022-12-11T09:04:22;33.58;;;16.33;;
7829;SDS011;3960;51.86894000;5.39848000;2022-12-11T09:06:47;31.88;;;17.02;;
7829;SDS011;3960;51.86894000;5.39848000;2022-12-11T09:09:12;31.75;;;16.70;;
7829;SDS011;3960;51.86894000;5.39848000;2022-12-11T09:11:38;31.50;;;16.77;;
7829;SDS011;3960;51.86894000;5.39848000;2022-12-11T09:14:03;32.58;;;16.70;;
7829;SDS011;3960;51.86894000;5.39848000;2022-12-11T09:16:29;31.80;;;16.50;;
7829;SDS011;3960;51.86894000;5.39848000;2022-12-11T09:18:55;31.90;;;15.55;;
7829;SDS011;3960;51.86894000;5.39848000;2022-12-11T09:21:22;29.08;;;16.50;;
7829;SDS011;3960;51.86894000;5.39848000;2022-12-11T09:23:48;33.20;;;16.08;;
7829;SDS011;3960;51.86894000;5.39848000;2022-12-11T09:26:14;29.92;;;16.05;;
7829;SDS011;3960;51.86894000;5.39848000;2022-12-11T09:28:39;30.75;;;15.23;;
7829;SDS011;3960;51.86894000;5.39848000;2022-12-11T09:31:24;27.42;;;14.80;;
7829;SDS011;3960;51.86894000;5.39848000;2022-12-11T09:33:50;29.85;;;15.38;;
7829;SDS011;3960;51.86894000;5.39848000;2022-12-11T09:36:16;27.05;;;15.00;;
7829;SDS011;3960;51.86894000;5.39848000;2022-12-11T09:38:41;27.58;;;14.38;;
7829;SDS011;3960;51.86894000;5.39848000;2022-12-11T09:43:49;28.52;;;14.93;;
7829;SDS011;3960;51.86894000;5.39848000;2022-12-11T09:46:16;29.13;;;15.65;;
7829;SDS011;3960;51.86894000;5.39848000;2022-12-11T09:48:42;28.80;;;15.10;;
7829;SDS011;3960;51.86894000;5.39848000;2022-12-11T09:51:29;27.70;;;15.25;;
7829;SDS011;3960;51.86894000;5.39848000;2022-12-11T09:53:56;27.50;;;15.05;;
7829;SDS011;3960;51.86894000;5.39848000;2022-12-11T09:56:28;30.38;;;15.05;;
7829;SDS011;3960;51.86894000;5.39848000;2022-12-11T09:59:01;29.40;;;16.02;;
7829;SDS011;3960;51.86894000;5.39848000;2022-12-11T10:01:48;29.80;;;14.93;;
7829;SDS011;3960;51.86894000;5.39848000;2022-12-11T10:06:49;32.33;;;17.40;;
7829;SDS011;3960;51.86894000;5.39848000;2022-12-11T10:09:24;31.13;;;15.48;;
7829;SDS011;3960;51.86894000;5.39848000;2022-12-11T10:14:34;30.80;;;14.90;;
7829;SDS011;3960;51.86894000;5.39848000;2022-12-11T10:19:31;33.10;;;15.38;;
7829;SDS011;3960;51.86894000;5.39848000;2022-12-11T10:21:57;31.10;;;15.10;;
7829;SDS011;3960;51.86894000;5.39848000;2022-12-11T10:24:33;33.40;;;15.35;;
7829;SDS011;3960;51.86894000;5.39848000;2022-12-11T10:27:07;32.05;;;15.65;;
7829;SDS011;3960;51.86894000;5.39848000;2022-12-11T10:29:36;30.65;;;15.13;;
7829;SDS011;3960;51.86894000;5.39848000;2022-12-11T10:32:01;33.43;;;16.20;;
7829;SDS011;3960;51.86894000;5.39848000;2022-12-11T10:34:33;29.05;;;15.05;;
7829;SDS011;3960;51.86894000;5.39848000;2022-12-11T10:36:59;31.05;;;14.63;;
7829;SDS011;3960;51.86894000;5.39848000;2022-12-11T10:39:24;31.35;;;14.93;;
7829;SDS011;3960;51.86894000;5.39848000;2022-12-11T10:41:50;30.42;;;15.80;;
7829;SDS011;3960;51.86894000;5.39848000;2022-12-11T10:46:41;29.95;;;13.65;;
7829;SDS011;3960;51.86894000;5.39848000;2022-12-11T10:49:18;31.08;;;15.52;;
7829;SDS011;3960;51.86894000;5.39848000;2022-12-11T10:51:44;30.08;;;15.23;;
7829;SDS011;3960;51.86894000;5.39848000;2022-12-11T10:54:16;29.13;;;14.43;;
7829;SDS011;3960;51.86894000;5.39848000;2022-12-11T10:56:48;34.85;;;16.00;;
7829;SDS011;3960;51.86894000;5.39848000;2022-12-11T10:59:19;33.65;;;15.68;;
7829;SDS011;3960;51.86894000;5.39848000;2022-12-11T11:01:45;31.85;;;15.07;;
7829;SDS011;3960;51.86894000;5.39848000;2022-12-11T11:04:22;30.77;;;15.85;;
7829;SDS011;3960;51.86894000;5.39848000;2022-12-11T11:09:35;30.05;;;15.35;;
7829;SDS011;3960;51.86894000;5.39848000;2022-12-11T11:12:01;31.30;;;16.33;;
7829;SDS011;3960;51.86894000;5.39848000;2022-12-11T11:14:26;32.55;;;16.05;;
7829;SDS011;3960;51.86894000;5.39848000;2022-12-11T11:16:54;30.50;;;15.73;;
7829;SDS011;3960;51.86894000;5.39848000;2022-12-11T11:19:28;32.33;;;16.13;;
7829;SDS011;3960;51.86894000;5.39848000;2022-12-11T11:21:58;28.83;;;15.88;;
7829;SDS011;3960;51.86894000;5.39848000;2022-12-11T11:24:29;32.13;;;16.02;;
7829;SDS011;3960;51.86894000;5.39848000;2022-12-11T11:26:55;29.13;;;15.65;;
7829;SDS011;3960;51.86894000;5.39848000;2022-12-11T11:29:25;34.40;;;17.35;;
7829;SDS011;3960;51.86894000;5.39848000;2022-12-11T11:31:51;40.13;;;17.55;;
7829;SDS011;3960;51.86894000;5.39848000;2022-12-11T11:34:18;36.88;;;17.10;;
7829;SDS011;3960;51.86894000;5.39848000;2022-12-11T11:36:44;34.15;;;17.67;;
7829;SDS011;3960;51.86894000;5.39848000;2022-12-11T11:39:19;34.10;;;17.48;;
7829;SDS011;3960;51.86894000;5.39848000;2022-12-11T11:44:13;34.90;;;16.55;;
7829;SDS011;3960;51.86894000;5.39848000;2022-12-11T11:46:46;36.08;;;17.90;;
7829;SDS011;3960;51.86894000;5.39848000;2022-12-11T11:49:37;35.22;;;17.27;;
7829;SDS011;3960;51.86894000;5.39848000;2022-12-11T11:52:24;37.97;;;17.88;;
7829;SDS011;3960;51.86894000;5.39848000;2022-12-11T12:00:16;38.22;;;17.40;;
7829;SDS011;3960;51.86894000;5.39848000;2022-12-11T12:02:41;37.78;;;18.05;;
7829;SDS011;3960;51.86894000;5.39848000;2022-12-11T12:05:13;37.30;;;18.25;;
7829;SDS011;3960;51.86894000;5.39848000;2022-12-11T12:10:28;35.13;;;19.83;;
7829;SDS011;3960;51.86894000;5.39848000;2022-12-11T12:13:00;37.60;;;19.40;;
7829;SDS011;3960;51.86894000;5.39848000;2022-12-11T12:36:14;41.00;;;20.45;;
7829;SDS011;3960;51.86894000;5.39848000;2022-12-11T12:38:46;44.60;;;20.17;;
7829;SDS011;3960;51.86894000;5.39848000;2022-12-11T12:48:37;45.83;;;22.02;;
7829;SDS011;3960;51.86894000;5.39848000;2022-12-11T12:51:02;48.08;;;21.20;;
7829;SDS011;3960;51.86894000;5.39848000;2022-12-11T12:53:29;43.22;;;20.10;;
7829;SDS011;3960;51.86894000;5.39848000;2022-12-11T12:55:56;40.63;;;18.90;;
7829;SDS011;3960;51.86894000;5.39848000;2022-12-11T13:01:06;40.80;;;20.27;;
7829;SDS011;3960;51.86894000;5.39848000;2022-12-11T13:03:34;39.67;;;20.02;;
7829;SDS011;3960;51.86894000;5.39848000;2022-12-11T13:06:03;48.78;;;19.70;;
7829;SDS011;3960;51.86894000;5.39848000;2022-12-11T13:08:30;39.53;;;19.55;;
7829;SDS011;3960;51.86894000;5.39848000;2022-12-11T13:11:08;41.20;;;19.83;;
7829;SDS011;3960;51.86894000;5.39848000;2022-12-11T13:13:38;37.83;;;19.02;;
7829;SDS011;3960;51.86894000;5.39848000;2022-12-11T13:16:05;39.80;;;19.73;;
7829;SDS011;3960;51.86894000;5.39848000;2022-12-11T13:18:35;40.53;;;18.83;;
7829;SDS011;3960;51.86894000;5.39848000;2022-12-11T13:21:01;39.95;;;19.90;;
7829;SDS011;3960;51.86894000;5.39848000;2022-12-11T13:23:28;42.40;;;20.38;;
7829;SDS011;3960;51.86894000;5.39848000;2022-12-11T13:26:01;38.28;;;18.67;;
7829;SDS011;3960;51.86894000;5.39848000;2022-12-11T13:28:27;43.33;;;20.98;;
7829;SDS011;3960;51.86894000;5.39848000;2022-12-11T13:31:18;39.40;;;19.35;;
7829;SDS011;3960;51.86894000;5.39848000;2022-12-11T13:33:47;38.85;;;19.63;;
7829;SDS011;3960;51.86894000;5.39848000;2022-12-11T13:36:19;39.60;;;19.83;;
7829;SDS011;3960;51.86894000;5.39848000;2022-12-11T13:38:51;38.03;;;19.23;;
7829;SDS011;3960;51.86894000;5.39848000;2022-12-11T13:41:17;44.07;;;20.13;;
7829;SDS011;3960;51.86894000;5.39848000;2022-12-11T13:43:44;44.60;;;20.00;;
7829;SDS011;3960;51.86894000;5.39848000;2022-12-11T13:46:10;37.67;;;18.85;;
7829;SDS011;3960;51.86894000;5.39848000;2022-12-11T13:48:37;38.75;;;19.38;;
7829;SDS011;3960;51.86894000;5.39848000;2022-12-11T13:51:03;38.15;;;19.58;;
7829;SDS011;3960;51.86894000;5.39848000;2022-12-11T13:53:29;37.25;;;18.88;;
7829;SDS011;3960;51.86894000;5.39848000;2022-12-11T13:56:01;39.15;;;20.08;;
7829;SDS011;3960;51.86894000;5.39848000;2022-12-11T13:58:28;40.60;;;20.52;;
7829;SDS011;3960;51.86894000;5.39848000;2022-12-11T14:00:56;43.17;;;20.08;;